sensor_id;sensor_type;location;lat;lon;timestamp;pressure;altitude;pressure_sealevel;temperature;humidity
32933;BME280;19444;50.518;10.870;2024-02-23T00:01:05;94000.41;;;8.43;100.00
32933;BME280;19444;50.518;10.870;2024-02-23T00:04:02;94008.19;;;8.52;100.00
32933;BME280;19444;50.518;10.870;2024-02-23T00:06:59;93997.06;;;8.50;100.00
32933;BME280;19444;50.518;10.870;2024-02-23T00:09:56;93987.34;;;8.38;100.00
32933;BME280;19444;50.518;10.870;2024-02-23T00:12:53;94016.44;;;8.05;100.00
32933;BME280;19444;50.518;10.870;2024-02-23T00:15:50;94012.75;;;8.13;100.00
32933;BME280;19444;50.518;10.870;2024-02-23T00:18:48;94015.50;;;7.97;100.00
32933;BME280;19444;50.518;10.870;2024-02-23T00:21:45;94031.97;;;7.83;100.00
32933;BME280;19444;50.518;10.870;2024-02-23T00:24:47;94071.09;;;7.60;100.00
32933;BME280;19444;50.518;10.870;2024-02-23T00:27:43;94059.13;;;7.69;100.00
32933;BME280;19444;50.518;10.870;2024-02-23T00:30:40;94057.91;;;7.67;100.00
32933;BME280;19444;50.518;10.870;2024-02-23T00:33:37;94053.28;;;7.64;100.00
32933;BME280;19444;50.518;10.870;2024-02-23T00:36:40;94093.81;;;7.54;100.00
32933;BME280;19444;50.518;10.870;2024-02-23T00:39:37;94098.00;;;7.70;100.00
32933;BME280;19444;50.518;10.870;2024-02-23T00:42:34;94093.88;;;7.57;100.00
32933;BME280;19444;50.518;10.870;2024-02-23T00:45:31;94109.63;;;7.47;100.00
32933;BME280;19444;50.518;10.870;2024-02-23T00:48:28;94115.59;;;7.24;100.00
32933;BME280;19444;50.518;10.870;2024-02-23T00:51:25;94127.69;;;7.22;100.00
32933;BME280;19444;50.518;10.870;2024-02-23T00:54:22;94161.03;;;7.31;100.00
32933;BME280;19444;50.518;10.870;2024-02-23T00:57:19;94176.66;;;7.17;100.00
32933;BME280;19444;50.518;10.870;2024-02-23T01:00:22;94178.66;;;7.36;100.00
32933;BME280;19444;50.518;10.870;2024-02-23T01:03:20;94177.19;;;7.23;100.00
32933;BME280;19444;50.518;10.870;2024-02-23T01:06:17;94183.44;;;7.30;100.00
32933;BME280;19444;50.518;10.870;2024-02-23T01:09:14;94175.50;;;7.02;100.00
32933;BME280;19444;50.518;10.870;2024-02-23T01:12:13;94182.47;;;6.91;100.00
32933;BME280;19444;50.518;10.870;2024-02-23T01:15:10;94206.25;;;7.00;100.00
32933;BME280;19444;50.518;10.870;2024-02-23T01:18:07;94199.06;;;7.00;100.00
32933;BME280;19444;50.518;10.870;2024-02-23T01:21:04;94199.47;;;6.87;100.00
32933;BME280;19444;50.518;10.870;2024-02-23T01:24:01;94199.94;;;6.76;100.00
32933;BME280;19444;50.518;10.870;2024-02-23T01:26:58;94200.13;;;6.83;100.00
32933;BME280;19444;50.518;10.870;2024-02-23T01:29:55;94201.94;;;6.67;100.00
32933;BME280;19444;50.518;10.870;2024-02-23T01:32:52;94216.88;;;6.84;100.00
32933;BME280;19444;50.518;10.870;2024-02-23T01:35:49;94216.78;;;6.80;100.00
32933;BME280;19444;50.518;10.870;2024-02-23T01:38:47;94214.97;;;6.84;100.00
32933;BME280;19444;50.518;10.870;2024-02-23T01:41:44;94228.34;;;6.72;100.00
32933;BME280;19444;50.518;10.870;2024-02-23T01:44:41;94235.31;;;6.77;100.00
32933;BME280;19444;50.518;10.870;2024-02-23T01:47:38;94241.94;;;6.83;100.00
32933;BME280;19444;50.518;10.870;2024-02-23T01:50:36;94235.47;;;6.68;100.00
32933;BME280;19444;50.518;10.870;2024-02-23T01:53:34;94236.91;;;6.66;100.00
32933;BME280;19444;50.518;10.870;2024-02-23T01:56:32;94228.75;;;6.87;100.00
32933;BME280;19444;50.518;10.870;2024-02-23T01:59:30;94226.66;;;6.80;100.00
32933;BME280;19444;50.518;10.870;2024-02-23T02:02:27;94242.03;;;6.59;100.00
32933;BME280;19444;50.518;10.870;2024-02-23T02:05:24;94242.72;;;6.43;100.00
32933;BME280;19444;50.518;10.870;2024-02-23T02:08:21;94260.31;;;6.60;100.00
32933;BME280;19444;50.518;10.870;2024-02-23T02:11:18;94262.81;;;6.41;100.00
32933;BME280;19444;50.518;10.870;2024-02-23T02:14:16;94273.88;;;5.94;100.00
32933;BME280;19444;50.518;10.870;2024-02-23T02:17:13;94260.03;;;5.76;100.00
32933;BME280;19444;50.518;10.870;2024-02-23T02:20:13;94267.03;;;5.93;100.00
32933;BME280;19444;50.518;10.870;2024-02-23T02:23:10;94261.50;;;5.98;100.00
32933;BME280;19444;50.518;10.870;2024-02-23T02:26:07;94269.34;;;6.31;100.00
32933;BME280;19444;50.518;10.870;2024-02-23T02:29:04;94268.59;;;6.06;100.00
32933;BME280;19444;50.518;10.870;2024-02-23T02:32:01;94279.63;;;5.71;100.00
32933;BME280;19444;50.518;10.870;2024-02-23T02:34:59;94279.47;;;6.13;100.00
32933;BME280;19444;50.518;10.870;2024-02-23T02:37:56;94287.53;;;6.05;100.00
32933;BME280;19444;50.518;10.870;2024-02-23T02:40:53;94305.91;;;6.10;100.00
32933;BME280;19444;50.518;10.870;2024-02-23T02:43:50;94301.16;;;6.03;100.00
32933;BME280;19444;50.518;10.870;2024-02-23T02:46:47;94302.25;;;6.02;100.00
32933;BME280;19444;50.518;10.870;2024-02-23T02:49:44;94304.50;;;6.24;100.00
32933;BME280;19444;50.518;10.870;2024-02-23T02:52:41;94312.13;;;6.02;100.00
32933;BME280;19444;50.518;10.870;2024-02-23T02:55:42;94307.47;;;5.98;100.00
32933;BME280;19444;50.518;10.870;2024-02-23T02:58:39;94316.31;;;6.03;100.00
32933;BME280;19444;50.518;10.870;2024-02-23T03:01:36;94298.56;;;5.82;100.00
32933;BME280;19444;50.518;10.870;2024-02-23T03:04:33;94300.56;;;5.85;100.00
32933;BME280;19444;50.518;10.870;2024-02-23T03:07:30;94316.00;;;6.04;100.00
32933;BME280;19444;50.518;10.870;2024-02-23T03:10:27;94325.09;;;5.58;100.00
32933;BME280;19444;50.518;10.870;2024-02-23T03:13:24;94329.25;;;5.80;100.00
32933;BME280;19444;50.518;10.870;2024-02-23T03:16:21;94327.09;;;6.06;100.00
32933;BME280;19444;50.518;10.870;2024-02-23T03:19:22;94329.97;;;6.13;100.00
32933;BME280;19444;50.518;10.870;2024-02-23T03:22:20;94339.88;;;5.80;100.00
32933;BME280;19444;50.518;10.870;2024-02-23T03:25:17;94339.97;;;5.71;100.00
32933;BME280;19444;50.518;10.870;2024-02-23T03:28:14;94350.41;;;5.88;100.00
32933;BME280;19444;50.518;10.870;2024-02-23T03:31:11;94348.66;;;5.92;100.00
32933;BME280;19444;50.518;10.870;2024-02-23T03:34:07;94359.25;;;5.80;100.00
32933;BME280;19444;50.518;10.870;2024-02-23T03:37:04;94359.78;;;5.74;100.00
32933;BME280;19444;50.518;10.870;2024-02-23T03:40:02;94390.19;;;5.64;100.00
32933;BME280;19444;50.518;10.870;2024-02-23T03:42:59;94393.94;;;5.51;100.00
32933;BME280;19444;50.518;10.870;2024-02-23T03:45:56;94393.09;;;5.17;100.00
32933;BME280;19444;50.518;10.870;2024-02-23T03:48:53;94395.94;;;4.91;100.00
32933;BME280;19444;50.518;10.870;2024-02-23T03:51:50;94401.91;;;5.09;100.00
32933;BME280;19444;50.518;10.870;2024-02-23T03:54:47;94406.41;;;4.67;100.00
32933;BME280;19444;50.518;10.870;2024-02-23T03:57:43;94415.19;;;4.59;100.00
32933;BME280;19444;50.518;10.870;2024-02-23T04:00:43;94418.81;;;4.75;100.00
32933;BME280;19444;50.518;10.870;2024-02-23T04:03:40;94408.44;;;4.91;100.00
32933;BME280;19444;50.518;10.870;2024-02-23T04:06:37;94423.78;;;4.85;100.00
32933;BME280;19444;50.518;10.870;2024-02-23T04:09:34;94430.59;;;4.95;100.00
32933;BME280;19444;50.518;10.870;2024-02-23T04:12:31;94420.88;;;5.20;100.00
32933;BME280;19444;50.518;10.870;2024-02-23T04:15:28;94437.22;;;5.51;100.00
32933;BME280;19444;50.518;10.870;2024-02-23T04:18:25;94459.22;;;5.10;100.00
32933;BME280;19444;50.518;10.870;2024-02-23T04:21:22;94474.59;;;4.66;100.00
32933;BME280;19444;50.518;10.870;2024-02-23T04:24:19;94446.06;;;4.63;100.00
32933;BME280;19444;50.518;10.870;2024-02-23T04:27:17;94459.84;;;4.86;100.00
32933;BME280;19444;50.518;10.870;2024-02-23T04:30:14;94475.31;;;4.37;100.00
32933;BME280;19444;50.518;10.870;2024-02-23T04:33:11;94443.88;;;4.56;100.00
32933;BME280;19444;50.518;10.870;2024-02-23T04:36:08;94456.91;;;4.79;100.00
32933;BME280;19444;50.518;10.870;2024-02-23T04:39:05;94459.63;;;4.62;100.00
32933;BME280;19444;50.518;10.870;2024-02-23T04:42:02;94461.75;;;4.77;100.00
32933;BME280;19444;50.518;10.870;2024-02-23T04:44:59;94476.13;;;5.05;100.00
32933;BME280;19444;50.518;10.870;2024-02-23T04:47:56;94464.91;;;4.70;100.00
32933;BME280;19444;50.518;10.870;2024-02-23T04:50:53;94463.13;;;5.12;100.00
32933;BME280;19444;50.518;10.870;2024-02-23T04:53:50;94475.56;;;4.62;100.00
32933;BME280;19444;50.518;10.870;2024-02-23T04:56:47;94488.47;;;4.72;100.00
32933;BME280;19444;50.518;10.870;2024-02-23T04:59:44;94496.50;;;4.46;100.00
32933;BME280;19444;50.518;10.870;2024-02-23T05:02:41;94503.81;;;4.57;100.00
32933;BME280;19444;50.518;10.870;2024-02-23T05:05:38;94532.41;;;4.43;100.00
32933;BME280;19444;50.518;10.870;2024-02-23T05:08:35;94517.44;;;4.39;100.00
32933;BME280;19444;50.518;10.870;2024-02-23T05:11:32;94533.66;;;4.37;100.00
32933;BME280;19444;50.518;10.870;2024-02-23T05:14:29;94519.78;;;4.40;100.00
32933;BME280;19444;50.518;10.870;2024-02-23T05:17:26;94504.03;;;4.35;100.00
32933;BME280;19444;50.518;10.870;2024-02-23T05:20:23;94505.59;;;4.36;100.00
32933;BME280;19444;50.518;10.870;2024-02-23T05:23:20;94519.78;;;4.40;100.00
32933;BME280;19444;50.518;10.870;2024-02-23T05:26:17;94529.22;;;4.12;100.00
32933;BME280;19444;50.518;10.870;2024-02-23T05:29:17;94528.19;;;4.42;100.00
32933;BME280;19444;50.518;10.870;2024-02-23T05:32:16;94516.59;;;4.55;100.00
32933;BME280;19444;50.518;10.870;2024-02-23T05:35:14;94541.28;;;4.39;100.00
32933;BME280;19444;50.518;10.870;2024-02-23T05:38:11;94544.78;;;4.13;100.00
32933;BME280;19444;50.518;10.870;2024-02-23T05:41:12;94518.53;;;4.29;100.00
32933;BME280;19444;50.518;10.870;2024-02-23T05:44:09;94536.06;;;4.21;100.00
32933;BME280;19444;50.518;10.870;2024-02-23T05:47:06;94537.63;;;4.05;100.00
32933;BME280;19444;50.518;10.870;2024-02-23T05:50:05;94540.38;;;4.43;100.00
32933;BME280;19444;50.518;10.870;2024-02-23T05:53:03;94566.16;;;3.91;100.00
32933;BME280;19444;50.518;10.870;2024-02-23T05:56:01;94556.41;;;4.47;100.00
32933;BME280;19444;50.518;10.870;2024-02-23T05:58:58;94559.56;;;4.49;100.00
32933;BME280;19444;50.518;10.870;2024-02-23T06:01:55;94557.69;;;4.49;100.00
32933;BME280;19444;50.518;10.870;2024-02-23T06:04:54;94566.44;;;4.41;100.00
32933;BME280;19444;50.518;10.870;2024-02-23T06:07:51;94559.84;;;4.39;100.00
32933;BME280;19444;50.518;10.870;2024-02-23T06:10:48;94570.84;;;4.03;100.00
32933;BME280;19444;50.518;10.870;2024-02-23T06:13:45;94575.97;;;4.25;100.00
32933;BME280;19444;50.518;10.870;2024-02-23T06:16:42;94569.44;;;4.22;100.00
32933;BME280;19444;50.518;10.870;2024-02-23T06:19:39;94572.84;;;4.23;100.00
32933;BME280;19444;50.518;10.870;2024-02-23T06:22:36;94578.63;;;4.16;100.00
32933;BME280;19444;50.518;10.870;2024-02-23T06:25:34;94580.03;;;4.05;100.00
32933;BME280;19444;50.518;10.870;2024-02-23T06:28:31;94580.47;;;4.42;100.00
32933;BME280;19444;50.518;10.870;2024-02-23T06:31:28;94580.00;;;4.40;100.00
32933;BME280;19444;50.518;10.870;2024-02-23T06:34:24;94582.34;;;4.33;100.00
32933;BME280;19444;50.518;10.870;2024-02-23T06:37:22;94594.19;;;4.44;100.00
32933;BME280;19444;50.518;10.870;2024-02-23T06:40:19;94607.91;;;4.37;100.00
32933;BME280;19444;50.518;10.870;2024-02-23T06:43:15;94621.63;;;4.48;100.00
32933;BME280;19444;50.518;10.870;2024-02-23T06:46:19;94618.84;;;4.36;100.00
32933;BME280;19444;50.518;10.870;2024-02-23T06:49:17;94624.47;;;4.17;100.00
32933;BME280;19444;50.518;10.870;2024-02-23T06:52:14;94635.38;;;4.33;100.00
32933;BME280;19444;50.518;10.870;2024-02-23T06:55:11;94623.53;;;4.30;100.00
32933;BME280;19444;50.518;10.870;2024-02-23T06:58:08;94640.69;;;4.41;100.00
32933;BME280;19444;50.518;10.870;2024-02-23T07:01:06;94647.88;;;4.23;100.00
32933;BME280;19444;50.518;10.870;2024-02-23T07:04:08;94635.97;;;4.38;100.00
32933;BME280;19444;50.518;10.870;2024-02-23T07:07:05;94649.56;;;3.93;100.00
32933;BME280;19444;50.518;10.870;2024-02-23T07:10:04;94665.47;;;4.11;100.00
32933;BME280;19444;50.518;10.870;2024-02-23T07:13:01;94671.56;;;4.46;100.00
32933;BME280;19444;50.518;10.870;2024-02-23T07:16:01;94667.34;;;4.62;100.00
32933;BME280;19444;50.518;10.870;2024-02-23T07:18:59;94672.63;;;4.02;100.00
32933;BME280;19444;50.518;10.870;2024-02-23T07:21:56;94673.56;;;4.66;100.00
32933;BME280;19444;50.518;10.870;2024-02-23T07:24:53;94670.78;;;4.28;100.00
32933;BME280;19444;50.518;10.870;2024-02-23T07:27:50;94682.47;;;4.36;100.00
32933;BME280;19444;50.518;10.870;2024-02-23T07:30:47;94680.16;;;4.34;100.00
32933;BME280;19444;50.518;10.870;2024-02-23T07:33:44;94672.19;;;4.34;100.00
32933;BME280;19444;50.518;10.870;2024-02-23T07:36:41;94679.50;;;4.20;100.00
32933;BME280;19444;50.518;10.870;2024-02-23T07:39:39;94679.78;;;3.92;100.00
32933;BME280;19444;50.518;10.870;2024-02-23T07:42:36;94678.59;;;4.42;100.00
32933;BME280;19444;50.518;10.870;2024-02-23T07:45:33;94677.50;;;4.43;100.00
32933;BME280;19444;50.518;10.870;2024-02-23T07:48:32;94675.16;;;4.33;100.00
32933;BME280;19444;50.518;10.870;2024-02-23T07:51:29;94670.78;;;4.37;100.00
32933;BME280;19444;50.518;10.870;2024-02-23T07:54:26;94674.47;;;3.92;100.00
32933;BME280;19444;50.518;10.870;2024-02-23T07:57:23;94664.88;;;4.22;100.00
32933;BME280;19444;50.518;10.870;2024-02-23T08:00:20;94679.50;;;4.20;100.00
32933;BME280;19444;50.518;10.870;2024-02-23T08:03:20;94684.00;;;4.02;100.00
32933;BME280;19444;50.518;10.870;2024-02-23T08:06:17;94678.28;;;4.43;100.00
32933;BME280;19444;50.518;10.870;2024-02-23T08:09:14;94685.00;;;4.41;100.00
32933;BME280;19444;50.518;10.870;2024-02-23T08:12:11;94684.03;;;4.19;100.00
32933;BME280;19444;50.518;10.870;2024-02-23T08:15:11;94689.03;;;4.38;100.00
32933;BME280;19444;50.518;10.870;2024-02-23T08:18:08;94691.06;;;4.33;100.00
32933;BME280;19444;50.518;10.870;2024-02-23T08:21:04;94688.09;;;4.43;100.00
32933;BME280;19444;50.518;10.870;2024-02-23T08:24:02;94691.53;;;4.17;100.00
32933;BME280;19444;50.518;10.870;2024-02-23T08:26:59;94686.09;;;4.31;100.00
32933;BME280;19444;50.518;10.870;2024-02-23T08:29:56;94689.97;;;4.60;100.00
32933;BME280;19444;50.518;10.870;2024-02-23T08:32:53;94698.38;;;4.36;100.00
32933;BME280;19444;50.518;10.870;2024-02-23T08:35:51;94688.25;;;4.12;100.00
32933;BME280;19444;50.518;10.870;2024-02-23T08:38:48;94674.66;;;4.56;100.00
32933;BME280;19444;50.518;10.870;2024-02-23T08:41:45;94678.72;;;4.37;100.00
32933;BME280;19444;50.518;10.870;2024-02-23T08:44:42;94682.16;;;4.28;100.00
32933;BME280;19444;50.518;10.870;2024-02-23T08:47:41;94674.84;;;4.25;100.00
32933;BME280;19444;50.518;10.870;2024-02-23T08:50:38;94680.75;;;4.57;100.00
32933;BME280;19444;50.518;10.870;2024-02-23T08:53:35;94677.63;;;4.55;100.00
32933;BME280;19444;50.518;10.870;2024-02-23T08:56:39;94674.38;;;4.49;100.00
32933;BME280;19444;50.518;10.870;2024-02-23T08:59:39;94674.50;;;4.79;100.00
32933;BME280;19444;50.518;10.870;2024-02-23T09:02:36;94681.84;;;4.47;100.00
32933;BME280;19444;50.518;10.870;2024-02-23T09:05:34;94674.50;;;4.70;100.00
32933;BME280;19444;50.518;10.870;2024-02-23T09:08:32;94674.91;;;4.98;100.00
32933;BME280;19444;50.518;10.870;2024-02-23T09:11:29;94674.59;;;5.00;100.00
32933;BME280;19444;50.518;10.870;2024-02-23T09:14:26;94674.50;;;4.70;100.00
32933;BME280;19444;50.518;10.870;2024-02-23T09:17:23;94680.56;;;4.88;100.00
32933;BME280;19444;50.518;10.870;2024-02-23T09:20:20;94692.63;;;4.68;100.00
32933;BME280;19444;50.518;10.870;2024-02-23T09:23:17;94701.16;;;4.91;100.00
32933;BME280;19444;50.518;10.870;2024-02-23T09:26:14;94696.41;;;5.23;100.00
32933;BME280;19444;50.518;10.870;2024-02-23T09:29:11;94693.81;;;5.05;100.00
32933;BME280;19444;50.518;10.870;2024-02-23T09:32:08;94706.66;;;4.69;100.00
32933;BME280;19444;50.518;10.870;2024-02-23T09:35:05;94708.97;;;4.96;100.00
32933;BME280;19444;50.518;10.870;2024-02-23T09:38:04;94708.34;;;4.99;100.00
32933;BME280;19444;50.518;10.870;2024-02-23T09:41:00;94700.34;;;5.08;100.00
32933;BME280;19444;50.518;10.870;2024-02-23T09:43:59;94709.09;;;5.08;100.00
32933;BME280;19444;50.518;10.870;2024-02-23T09:46:56;94710.69;;;4.92;100.00
32933;BME280;19444;50.518;10.870;2024-02-23T09:49:55;94701.94;;;4.83;100.00
32933;BME280;19444;50.518;10.870;2024-02-23T09:52:52;94706.00;;;4.98;100.00
32933;BME280;19444;50.518;10.870;2024-02-23T09:55:50;94705.56;;;4.61;100.00
32933;BME280;19444;50.518;10.870;2024-02-23T09:58:49;94710.41;;;4.68;100.00
32933;BME280;19444;50.518;10.870;2024-02-23T10:01:47;94704.94;;;4.64;100.00
32933;BME280;19444;50.518;10.870;2024-02-23T10:04:44;94707.53;;;5.16;100.00
32933;BME280;19444;50.518;10.870;2024-02-23T10:07:42;94694.75;;;4.92;100.00
32933;BME280;19444;50.518;10.870;2024-02-23T10:10:39;94707.63;;;5.28;100.00
32933;BME280;19444;50.518;10.870;2024-02-23T10:13:36;94692.38;;;5.08;100.00
32933;BME280;19444;50.518;10.870;2024-02-23T10:16:33;94702.53;;;5.14;100.00
32933;BME280;19444;50.518;10.870;2024-02-23T10:19:30;94704.13;;;5.45;100.00
32933;BME280;19444;50.518;10.870;2024-02-23T10:22:31;94711.03;;;5.37;100.00
32933;BME280;19444;50.518;10.870;2024-02-23T10:25:28;94689.59;;;5.04;100.00
32933;BME280;19444;50.518;10.870;2024-02-23T10:28:24;94698.38;;;5.43;100.00
32933;BME280;19444;50.518;10.870;2024-02-23T10:31:24;94719.81;;;5.29;100.00
32933;BME280;19444;50.518;10.870;2024-02-23T10:34:21;94706.69;;;5.33;100.00
32933;BME280;19444;50.518;10.870;2024-02-23T10:37:18;94718.47;;;5.61;100.00
32933;BME280;19444;50.518;10.870;2024-02-23T10:40:17;94725.34;;;5.62;100.00
32933;BME280;19444;50.518;10.870;2024-02-23T10:43:19;94743.81;;;5.50;100.00
32933;BME280;19444;50.518;10.870;2024-02-23T10:46:17;94728.88;;;5.28;100.00
32933;BME280;19444;50.518;10.870;2024-02-23T10:49:15;94739.03;;;5.35;100.00
32933;BME280;19444;50.518;10.870;2024-02-23T10:52:17;94737.91;;;5.36;100.00
32933;BME280;19444;50.518;10.870;2024-02-23T10:55:14;94742.69;;;5.13;100.00
32933;BME280;19444;50.518;10.870;2024-02-23T10:58:11;94747.00;;;5.26;100.00
32933;BME280;19444;50.518;10.870;2024-02-23T11:01:10;94751.69;;;5.21;100.00
32933;BME280;19444;50.518;10.870;2024-02-23T11:04:09;94748.09;;;5.25;100.00
32933;BME280;19444;50.518;10.870;2024-02-23T11:07:13;94751.56;;;5.08;100.00
32933;BME280;19444;50.518;10.870;2024-02-23T11:10:13;94761.06;;;5.27;100.00
32933;BME280;19444;50.518;10.870;2024-02-23T11:13:11;94756.72;;;5.13;100.00
32933;BME280;19444;50.518;10.870;2024-02-23T11:16:08;94761.09;;;5.09;100.00
32933;BME280;19444;50.518;10.870;2024-02-23T11:19:07;94750.47;;;5.18;100.00
32933;BME280;19444;50.518;10.870;2024-02-23T11:22:09;94745.88;;;5.36;100.00
32933;BME280;19444;50.518;10.870;2024-02-23T11:25:18;94755.31;;;5.07;100.00
32933;BME280;19444;50.518;10.870;2024-02-23T11:28:24;94762.50;;;5.16;100.00
32933;BME280;19444;50.518;10.870;2024-02-23T11:31:23;94753.97;;;5.48;100.00
32933;BME280;19444;50.518;10.870;2024-02-23T11:34:23;94753.50;;;5.46;100.00
32933;BME280;19444;50.518;10.870;2024-02-23T11:37:21;94755.56;;;5.49;100.00
32933;BME280;19444;50.518;10.870;2024-02-23T11:40:18;94753.88;;;5.27;100.00
32933;BME280;19444;50.518;10.870;2024-02-23T11:43:16;94755.28;;;5.33;100.00
32933;BME280;19444;50.518;10.870;2024-02-23T11:46:16;94757.19;;;5.16;100.00
32933;BME280;19444;50.518;10.870;2024-02-23T11:49:14;94751.84;;;5.33;100.00
32933;BME280;19444;50.518;10.870;2024-02-23T11:52:13;94745.41;;;5.42;100.00
32933;BME280;19444;50.518;10.870;2024-02-23T11:55:10;94747.75;;;5.44;100.00
32933;BME280;19444;50.518;10.870;2024-02-23T11:58:07;94747.41;;;5.54;100.00
32933;BME280;19444;50.518;10.870;2024-02-23T12:01:14;94742.75;;;5.81;100.00
32933;BME280;19444;50.518;10.870;2024-02-23T12:04:11;94747.06;;;5.56;100.00
32933;BME280;19444;50.518;10.870;2024-02-23T12:07:08;94743.44;;;5.69;100.00
32933;BME280;19444;50.518;10.870;2024-02-23T12:10:05;94743.81;;;5.50;100.00
32933;BME280;19444;50.518;10.870;2024-02-23T12:13:03;94731.72;;;5.70;100.00
32933;BME280;19444;50.518;10.870;2024-02-23T12:16:00;94741.97;;;5.42;100.00
32933;BME280;19444;50.518;10.870;2024-02-23T12:18:57;94738.84;;;5.49;100.00
32933;BME280;19444;50.518;10.870;2024-02-23T12:21:54;94736.44;;;5.56;100.00
32933;BME280;19444;50.518;10.870;2024-02-23T12:24:59;94729.75;;;5.88;100.00
32933;BME280;19444;50.518;10.870;2024-02-23T12:27:56;94728.63;;;5.59;100.00
32933;BME280;19444;50.518;10.870;2024-02-23T12:31:04;94728.31;;;5.61;100.00
32933;BME280;19444;50.518;10.870;2024-02-23T12:34:01;94726.84;;;5.72;100.00
32933;BME280;19444;50.518;10.870;2024-02-23T12:36:58;94723.75;;;5.70;100.00
32933;BME280;19444;50.518;10.870;2024-02-23T12:39:55;94726.47;;;5.53;100.00
32933;BME280;19444;50.518;10.870;2024-02-23T12:42:52;94722.53;;;5.59;100.00
32933;BME280;19444;50.518;10.870;2024-02-23T12:45:58;94740.66;;;5.57;100.00
32933;BME280;19444;50.518;10.870;2024-02-23T12:48:55;94734.69;;;5.68;100.00
32933;BME280;19444;50.518;10.870;2024-02-23T12:51:52;94737.97;;;5.65;100.00
32933;BME280;19444;50.518;10.870;2024-02-23T12:54:49;94746.00;;;5.48;100.00
32933;BME280;19444;50.518;10.870;2024-02-23T12:57:48;94724.09;;;5.60;100.00
32933;BME280;19444;50.518;10.870;2024-02-23T13:00:45;94733.94;;;5.59;100.00
32933;BME280;19444;50.518;10.870;2024-02-23T13:03:42;94737.41;;;5.89;100.00
32933;BME280;19444;50.518;10.870;2024-02-23T13:06:39;94724.97;;;5.72;100.00
32933;BME280;19444;50.518;10.870;2024-02-23T13:09:37;94725.22;;;5.50;100.00
32933;BME280;19444;50.518;10.870;2024-02-23T13:12:33;94732.13;;;5.81;100.00
32933;BME280;19444;50.518;10.870;2024-02-23T13:15:30;94722.28;;;5.81;100.00
32933;BME280;19444;50.518;10.870;2024-02-23T13:18:27;94729.59;;;5.93;100.00
32933;BME280;19444;50.518;10.870;2024-02-23T13:21:24;94715.69;;;5.87;100.00
32933;BME280;19444;50.518;10.870;2024-02-23T13:24:21;94721.19;;;5.82;100.00
32933;BME280;19444;50.518;10.870;2024-02-23T13:27:18;94723.78;;;5.99;100.00
32933;BME280;19444;50.518;10.870;2024-02-23T13:30:15;94733.09;;;5.76;100.00
32933;BME280;19444;50.518;10.870;2024-02-23T13:33:12;94732.34;;;6.35;100.00
32933;BME280;19444;50.518;10.870;2024-02-23T13:36:09;94738.47;;;6.06;100.00
32933;BME280;19444;50.518;10.870;2024-02-23T13:39:07;94729.41;;;6.48;100.00
32933;BME280;19444;50.518;10.870;2024-02-23T13:42:04;94714.28;;;6.19;100.00
32933;BME280;19444;50.518;10.870;2024-02-23T13:45:02;94716.34;;;6.14;100.00
32933;BME280;19444;50.518;10.870;2024-02-23T13:48:03;94716.53;;;6.30;100.00
32933;BME280;19444;50.518;10.870;2024-02-23T13:51:02;94710.72;;;6.15;100.00
32933;BME280;19444;50.518;10.870;2024-02-23T13:54:04;94712.56;;;5.85;100.00
32933;BME280;19444;50.518;10.870;2024-02-23T13:57:04;94703.63;;;6.19;100.00
32933;BME280;19444;50.518;10.870;2024-02-23T14:00:01;94716.53;;;6.09;100.00
32933;BME280;19444;50.518;10.870;2024-02-23T14:02:58;94710.53;;;5.91;100.00
32933;BME280;19444;50.518;10.870;2024-02-23T14:05:56;94709.28;;;5.88;100.00
32933;BME280;19444;50.518;10.870;2024-02-23T14:08:53;94705.28;;;6.03;100.00
32933;BME280;19444;50.518;10.870;2024-02-23T14:11:50;94708.75;;;6.04;100.00
32933;BME280;19444;50.518;10.870;2024-02-23T14:14:47;94711.16;;;5.88;100.00
32933;BME280;19444;50.518;10.870;2024-02-23T14:17:44;94703.50;;;6.16;100.00
32933;BME280;19444;50.518;10.870;2024-02-23T14:20:41;94696.81;;;6.10;100.00
32933;BME280;19444;50.518;10.870;2024-02-23T14:23:38;94694.47;;;6.08;100.00
32933;BME280;19444;50.518;10.870;2024-02-23T14:26:35;94695.25;;;6.09;100.00
32933;BME280;19444;50.518;10.870;2024-02-23T14:29:32;94694.53;;;5.99;100.00
32933;BME280;19444;50.518;10.870;2024-02-23T14:32:29;94688.38;;;6.28;100.00
32933;BME280;19444;50.518;10.870;2024-02-23T14:35:26;94691.44;;;5.89;100.00
32933;BME280;19444;50.518;10.870;2024-02-23T14:38:23;94685.84;;;6.11;100.00
32933;BME280;19444;50.518;10.870;2024-02-23T14:41:20;94684.81;;;6.04;100.00
32933;BME280;19444;50.518;10.870;2024-02-23T14:44:17;94683.59;;;6.22;100.00
32933;BME280;19444;50.518;10.870;2024-02-23T14:47:13;94680.91;;;6.64;100.00
32933;BME280;19444;50.518;10.870;2024-02-23T14:50:10;94678.84;;;6.27;100.00
32933;BME280;19444;50.518;10.870;2024-02-23T14:53:07;94664.31;;;6.04;100.00
32933;BME280;19444;50.518;10.870;2024-02-23T14:56:05;94664.34;;;6.25;100.00
32933;BME280;19444;50.518;10.870;2024-02-23T14:59:02;94651.22;;;6.41;100.00
32933;BME280;19444;50.518;10.870;2024-02-23T15:02:02;94647.72;;;6.07;100.00
32933;BME280;19444;50.518;10.870;2024-02-23T15:04:59;94645.56;;;6.42;100.00
32933;BME280;19444;50.518;10.870;2024-02-23T15:07:56;94642.63;;;6.56;100.00
32933;BME280;19444;50.518;10.870;2024-02-23T15:10:53;94646.75;;;6.33;100.00
32933;BME280;19444;50.518;10.870;2024-02-23T15:13:50;94645.84;;;6.28;100.00
32933;BME280;19444;50.518;10.870;2024-02-23T15:16:54;94652.44;;;6.43;100.00
32933;BME280;19444;50.518;10.870;2024-02-23T15:19:51;94650.50;;;6.52;100.00
32933;BME280;19444;50.518;10.870;2024-02-23T15:22:48;94653.44;;;6.72;100.00
32933;BME280;19444;50.518;10.870;2024-02-23T15:25:46;94663.41;;;6.00;100.00
32933;BME280;19444;50.518;10.870;2024-02-23T15:28:55;94666.84;;;6.21;100.00